»·PEaware :: USC243 KDEN-KASE

USC243 :: KDEN-KASE

FLIGHT INFORMATION

Flight Status: Arrived
Operator: Unknown
More flights by this operator :: More flights under this callsign
Pilot: Andy P. (22680)
Aircraft: GATES LEARJET LEARJET 35/36
(LJ35)
More flights by this aircraft type
Origin: KDEN Denver Intl
United States
Destination: KASE Aspen-Pitkin Co/Sardy
United States
More flights between these airports :: More routes between these airports
Route: CONNR5 DBL
File this flight plan on PilotEdge
Remarks:
Altitude:
(Current/Filed)
20,000ft
Speed:
(Current/Filed)
465kts
Departed: 29-Sep-19 01:30 PM
Arrived: 29-Sep-19 01:59 PM
Distance/Time
Traveled:
524nm/0:29
Distance/Time
To Go:
Arrived

Flight Plot

Page will automatically refresh every two minutes.

Flight plan parsing failed; only flown route is shown


Map Options




Map Legend


Flown Route
Filed Route
Departure Airport
Arrival Airport
Navaid (VOR, NDB)
Fix

Horizontal Profiles

Position Reports

Time Latitude Longitude Heading Altitude Ground
Speed
29-Sep-19 13:02 39.830924 -104.672848 0 5433ft 0kts
29-Sep-19 13:03 39.830924 -104.672848 0 5433ft 0kts
29-Sep-19 13:04 39.830924 -104.672848 0 5433ft 0kts
29-Sep-19 13:05 39.830924 -104.672848 0 5433ft 0kts
29-Sep-19 13:06 39.830924 -104.672848 0 5433ft 0kts
29-Sep-19 13:07 39.830924 -104.672848 0 5433ft 0kts
29-Sep-19 13:08 39.830924 -104.672848 0 5433ft 0kts
29-Sep-19 13:09 39.830924 -104.672848 0 5433ft 0kts
29-Sep-19 13:10 39.830924 -104.672848 0 5433ft 0kts
29-Sep-19 13:11 39.830924 -104.672848 0 5433ft 0kts
29-Sep-19 13:12 39.830924 -104.672848 0 5433ft 0kts
29-Sep-19 13:13 39.830924 -104.672848 0 5433ft 0kts
29-Sep-19 13:14 39.830924 -104.672848 0 5433ft 0kts
29-Sep-19 13:15 39.830924 -104.672848 0 5433ft 0kts
29-Sep-19 13:16 39.830924 -104.672848 0 5433ft 0kts
29-Sep-19 13:17 39.830924 -104.672848 0 5433ft 0kts
29-Sep-19 13:18 39.830924 -104.672848 0 5433ft 0kts
29-Sep-19 13:18 39.830924 -104.672848 0 5433ft 0kts
29-Sep-19 13:20 39.830705 -104.672982 157 5433ft 7kts
29-Sep-19 13:21 39.829317 -104.669087 91 5433ft 18kts
29-Sep-19 13:21 39.829445 -104.662971 32 5433ft 19kts
29-Sep-19 13:23 39.837508 -104.662590 1 5433ft 32kts
29-Sep-19 13:24 39.847458 -104.662448 1 5433ft 39kts
29-Sep-19 13:24 39.856251 -104.662308 358 5433ft 35kts
29-Sep-19 13:25 39.864949 -104.662029 60 5433ft 17kts
29-Sep-19 13:26 39.865005 -104.655201 92 5433ft 25kts
29-Sep-19 13:27 39.864928 -104.646041 90 5433ft 20kts
29-Sep-19 13:28 39.864347 -104.641303 177 5433ft 12kts
29-Sep-19 13:29 39.835595 -104.641850 185 5856ft 165kts
29-Sep-19 13:30 39.785409 -104.670162 230 8253ft 240kts
29-Sep-19 13:31 39.757468 -104.748299 268 9983ft 255kts
29-Sep-19 13:32 39.757569 -104.837336 262 9945ft 261kts
29-Sep-19 13:33 39.763014 -104.935670 277 10266ft 290kts
29-Sep-19 13:34 39.776868 -105.043751 273 13358ft 306kts
29-Sep-19 13:35 39.790161 -105.154587 272 16113ft 312kts
29-Sep-19 13:36 39.784454 -105.264065 248 18872ft 305kts
29-Sep-19 13:37 39.760207 -105.374754 250 19914ft 342kts
29-Sep-19 13:38 39.732989 -105.501767 250 20041ft 382kts
29-Sep-19 13:39 39.705271 -105.634513 251 20185ft 369kts
29-Sep-19 13:40 39.688375 -105.763381 256 20223ft 355kts
29-Sep-19 13:41 39.674448 -105.889066 256 20219ft 348kts
29-Sep-19 13:42 39.660522 -106.013383 256 20209ft 350kts
29-Sep-19 13:43 39.646240 -106.139685 256 20192ft 357kts
29-Sep-19 13:44 39.631649 -106.267498 256 20177ft 359kts
29-Sep-19 13:45 39.602325 -106.389353 244 20137ft 354kts
29-Sep-19 13:46 39.564453 -106.507520 244 20021ft 348kts
29-Sep-19 13:47 39.531429 -106.610441 243 18353ft 279kts
29-Sep-19 13:48 39.502449 -106.692967 237 17095ft 230kts
29-Sep-19 13:49 39.479822 -106.772347 242 15982ft 236kts
29-Sep-19 13:50 39.453919 -106.850240 241 16000ft 235kts
29-Sep-19 13:51 39.456061 -106.943654 276 14669ft 300kts
29-Sep-19 13:52 39.434351 -107.014516 183 14002ft 193kts
29-Sep-19 13:53 39.400121 -106.959002 137 13028ft 209kts
29-Sep-19 13:54 39.357583 -106.930197 170 12246ft 173kts
29-Sep-19 13:55 39.315291 -106.910978 163 10935ft 151kts
29-Sep-19 13:56 39.277417 -106.894494 165 8645ft 147kts
29-Sep-19 13:57 39.239024 -106.876435 163 7975ft 146kts
29-Sep-19 13:58 39.223307 -106.868258 72 7822ft 6kts
29-Sep-19 13:59 39.221412 -106.866378 88 7822ft 13kts
29-Sep-19 14:00 39.222597 -106.866839 255 7822ft 0kts
29-Sep-19 14:01 39.222597 -106.866839 255 7822ft 0kts
29-Sep-19 14:02 39.222597 -106.866839 255 7822ft 0kts
29-Sep-19 14:03 39.222597 -106.866839 255 7822ft 0kts
29-Sep-19 14:04 39.222597 -106.866839 255 7822ft 0kts
29-Sep-19 14:05 39.222597 -106.866839 255 7822ft 0kts
29-Sep-19 14:06 39.222597 -106.866839 255 7822ft 0kts
29-Sep-19 14:07 39.222597 -106.866839 255 7822ft 0kts
29-Sep-19 14:08 39.222597 -106.866839 255 7822ft 0kts
29-Sep-19 14:09 37.310162 -108.620100 221 5921ft 0kts
29-Sep-19 14:10 37.308860 -108.622034 229 5951ft 45kts
29-Sep-19 14:11 37.303386 -108.629787 238 5921ft 0kts
29-Sep-19 14:12 33.266028 -111.813866 65 1363ft 11kts

Navigation Log

Ident Type
Flight plan parsing failed, navigation log unavailable